Bolzano Airport

LIPB · Trentino-Alto Adige, 意大利

罗盘
风向 的 Bolzano Airport 1/19
风: 2 kt, 1 beaufort

2 kt

改变
0 ft 1.000 2.000 3.000 4.000 5.000
Cloud Cloud
FEW 2.700
METAR LIPB 281350Z VRB02KT 9999 FEW027 13/07 Q1018

METAR Bolzano Airport - LIPB/BZO

Bolzano Airport是,意大利中的中型机场。 该机场位于纬度46,45828和经度11,32589。 该机场有一条跑道: 1/19. 本场的ICAO机场代码为LIPB。 该机场的IATA代码为BZO。 机场在Milano FIR中。

该航空气象观测是针对Bolzano Airport在2024年2月28日 14:50, 当地时间进行的。

机场观察

可变方向的风很小或没有风。

可见度为10 km 或者更多。

有几云在2.700 ft的高度。 没有观察到天花板。

温度和风寒是13 °C。 露点为7 °C,相对湿度为67%。 海平面上的气压为1018 hPa (QNH)。

白天

今天,太阳从06:56升起,在17:58降落。 这适用于Bolzano Airport,世界夏令时可能有所不同。 当地时间与世界标准时间之间的时差为+1 小时。 当前,没有夏令时有效。

公司介绍

我们没有关于这个机场的公司信息。

体会

到Vliegles.nl去找飞行课程,跳伞和其他飞行体验。 浏览页面,了解Bolzano Airport附近所有可用的活动。 你也可以使用搜索功能来寻找你所在地附近的特定飞行课程、跳伞或其他飞行体验。

跑道

Id 标题 侧风 逆风 侧风 %
1/19 009°-189° 2 kt 16 %

逆风成分最大的方向会被突出显示,并用于横风计算。 这并不一定意味着这个方向在使用。

乌云

2.700 ft FEW 几云

温度 & 天气

温度 13 °C
露点 7 °C
相对湿度 67%
Kp-index 0 (0-9)

白天

日出
06:56
中午
12:27
日落
17:58 (2:49)

小工具

你想在你的网站上有一个关于Bolzano Airport的当前航空天气(METAR)的小部件吗?

显示HTML代码
?>